createdAt,value
2022-10-09T00:01:15.407Z,100831.16
2022-10-09T00:04:01.471Z,100820.88
2022-10-09T00:06:47.266Z,100838.34
2022-10-09T00:09:33.166Z,100815.41
2022-10-09T00:12:18.664Z,100852.00
2022-10-09T00:15:04.973Z,100809.78
2022-10-09T00:17:51.082Z,100843.31
2022-10-09T00:20:42.451Z,100855.31
2022-10-09T00:23:28.670Z,100852.91
2022-10-09T00:26:14.817Z,100844.50
2022-10-09T00:29:01.001Z,100841.81
2022-10-09T00:31:46.682Z,100878.91
2022-10-09T00:34:32.420Z,100857.69
2022-10-09T00:37:18.615Z,100859.56
2022-10-09T00:40:04.792Z,100865.84
2022-10-09T00:42:57.126Z,100855.53
2022-10-09T00:45:50.875Z,100862.66
2022-10-09T00:48:37.011Z,100867.53
2022-10-09T00:51:22.659Z,100852.56
2022-10-09T00:54:11.378Z,100851.25
2022-10-09T00:56:57.403Z,100853.97
2022-10-09T00:59:43.639Z,100874.16
2022-10-09T01:02:29.710Z,100846.59
2022-10-09T01:05:15.962Z,100855.88
2022-10-09T01:08:08.475Z,100861.88
2022-10-09T01:11:01.455Z,100874.16
2022-10-09T01:13:53.059Z,100873.34
2022-10-09T01:16:51.319Z,100855.94
2022-10-09T01:19:54.746Z,100874.75
2022-10-09T01:23:00.765Z,100875.31
2022-10-09T01:26:15.161Z,100881.56
2022-10-09T01:29:09.947Z,100887.31
2022-10-09T01:31:55.885Z,100890.06
2022-10-09T01:34:42.950Z,100905.38
2022-10-09T01:37:30.501Z,100881.94
2022-10-09T01:40:17.591Z,100887.94
2022-10-09T01:43:02.990Z,100915.81
2022-10-09T01:45:49.316Z,100884.94
2022-10-09T01:48:35.006Z,100918.25
2022-10-09T01:51:22.569Z,100908.69
2022-10-09T01:54:09.541Z,100919.09
2022-10-09T01:56:56.161Z,100919.34
2022-10-09T01:59:43.799Z,100917.47
2022-10-09T02:02:30.127Z,100924.25
2022-10-09T02:05:21.254Z,100925.13
2022-10-09T02:08:07.465Z,100927.84
2022-10-09T02:10:55.851Z,100915.03
2022-10-09T02:13:42.174Z,100935.50
2022-10-09T02:16:33.558Z,100933.84
2022-10-09T02:19:26.573Z,100938.22
2022-10-09T02:22:19.104Z,100940.69
2022-10-09T02:25:06.425Z,100950.81
2022-10-09T02:27:52.085Z,100951.63
2022-10-09T02:30:46.963Z,100948.88
2022-10-09T02:33:35.402Z,100953.53
2022-10-09T02:36:20.970Z,100954.09
2022-10-09T02:39:07.390Z,100945.13
2022-10-09T02:41:53.739Z,100936.38
2022-10-09T02:44:39.215Z,100954.38
2022-10-09T02:47:25.070Z,100952.75
2022-10-09T02:50:10.610Z,100954.94
2022-10-09T02:52:56.360Z,100963.69
2022-10-09T02:55:42.318Z,100976.53
2022-10-09T02:58:31.083Z,100974.06
2022-10-09T03:01:17.813Z,100978.44
2022-10-09T03:04:04.166Z,100945.97
2022-10-09T03:06:50.158Z,100959.31
2022-10-09T03:09:36.229Z,100987.47
2022-10-09T03:12:22.242Z,100954.41
2022-10-09T03:15:08.857Z,100982.00
2022-10-09T03:17:54.646Z,100985.53
2022-10-09T03:20:40.379Z,100992.38
2022-10-09T03:23:26.988Z,100988.81
2022-10-09T03:26:15.335Z,100986.38
2022-10-09T03:29:00.784Z,101008.50
2022-10-09T03:31:52.320Z,100989.66
2022-10-09T03:34:38.725Z,100997.00
2022-10-09T03:37:24.816Z,101022.41
2022-10-09T03:40:10.870Z,101014.47
2022-10-09T03:42:57.209Z,101017.50
2022-10-09T03:45:43.745Z,101019.38
2022-10-09T03:48:29.741Z,101034.13
2022-10-09T03:51:15.190Z,101024.59
2022-10-09T03:54:01.259Z,101042.06
2022-10-09T03:56:46.876Z,101024.84
2022-10-09T03:59:32.610Z,101040.41
2022-10-09T04:02:18.140Z,101027.00
2022-10-09T04:05:04.112Z,101039.03
2022-10-09T04:07:49.765Z,101060.63
2022-10-09T04:10:35.729Z,101042.28
2022-10-09T04:13:21.226Z,101050.47
2022-10-09T04:16:09.631Z,101049.94
2022-10-09T04:18:55.574Z,101067.41
2022-10-09T04:21:41.314Z,101048.53
2022-10-09T04:24:27.355Z,101066.06
2022-10-09T04:27:14.064Z,101073.16
2022-10-09T04:29:59.929Z,101070.97
2022-10-09T04:32:48.178Z,101069.56
2022-10-09T04:35:34.341Z,101073.66
2022-10-09T04:38:21.302Z,101075.81
2022-10-09T04:41:07.446Z,101072.56
2022-10-09T04:43:56.959Z,101077.47
2022-10-09T04:46:42.621Z,101069.81
2022-10-09T04:49:28.224Z,101068.44
2022-10-09T04:52:13.712Z,101079.63
2022-10-09T04:54:59.405Z,101055.56
2022-10-09T04:57:44.958Z,101070.06
2022-10-09T05:00:30.554Z,101067.59
2022-10-09T05:03:16.618Z,101073.03
2022-10-09T05:06:03.828Z,101080.47
2022-10-09T05:08:50.084Z,101094.09
2022-10-09T05:11:41.674Z,101102.84
2022-10-09T05:14:29.071Z,101098.75
2022-10-09T05:17:16.538Z,101089.75
2022-10-09T05:20:04.411Z,101096.59
2022-10-09T05:22:50.962Z,101107.53
2022-10-09T05:25:37.806Z,101113.56
2022-10-09T05:28:24.176Z,101110.31
2022-10-09T05:31:23.933Z,101113.03
2022-10-09T05:34:10.648Z,101110.00
2022-10-09T05:36:56.748Z,101113.03
2022-10-09T05:39:42.894Z,101117.97
2022-10-09T05:42:28.549Z,101136.00
2022-10-09T05:45:14.669Z,101141.75
2022-10-09T05:48:00.228Z,101141.22
2022-10-09T05:50:46.689Z,101136.00
2022-10-09T05:53:32.628Z,101136.56
2022-10-09T05:56:24.015Z,101142.84
2022-10-09T05:59:15.746Z,101161.97
2022-10-09T06:02:01.489Z,101159.03
2022-10-09T06:04:47.140Z,101178.16
2022-10-09T06:07:33.449Z,101175.69
2022-10-09T06:10:19.693Z,101184.44
2022-10-09T06:13:05.204Z,101169.41
2022-10-09T06:15:54.883Z,101196.19
2022-10-09T06:18:44.407Z,101178.41
2022-10-09T06:21:34.481Z,101184.72
2022-10-09T06:24:27.346Z,101207.13
2022-10-09T06:27:15.190Z,101214.22
2022-10-09T06:30:00.873Z,101221.88
2022-10-09T06:32:47.920Z,101205.75
2022-10-09T06:35:34.904Z,101224.91
2022-10-09T06:38:21.321Z,101220.78
2022-10-09T06:41:11.501Z,101225.72
2022-10-09T06:44:02.721Z,101234.19
2022-10-09T06:46:49.860Z,101242.41
2022-10-09T06:49:35.497Z,101250.06
2022-10-09T06:52:21.325Z,101246.47
2022-10-09T06:55:07.313Z,101242.09
2022-10-09T06:57:52.971Z,101248.41
2022-10-09T07:00:38.945Z,101240.19
2022-10-09T07:03:24.917Z,101234.19
2022-10-09T07:06:13.809Z,101265.91
2022-10-09T07:09:01.656Z,101247.56
2022-10-09T07:11:49.288Z,101268.34
2022-10-09T07:14:35.241Z,101265.06
2022-10-09T07:17:20.770Z,101268.59
2022-10-09T07:20:06.833Z,101259.59
2022-10-09T07:22:52.943Z,101258.22
2022-10-09T07:25:39.575Z,101271.06
2022-10-09T07:28:27.433Z,101286.38
2022-10-09T07:31:13.743Z,101285.53
2022-10-09T07:34:00.505Z,101280.91
2022-10-09T07:36:46.879Z,101264.22
2022-10-09T07:39:32.567Z,101289.91
2022-10-09T07:42:18.272Z,101286.06
2022-10-09T07:45:05.272Z,101287.97
2022-10-09T07:47:51.644Z,101272.66
2022-10-09T07:50:37.721Z,101295.06
2022-10-09T07:53:23.790Z,101310.09
2022-10-09T07:56:18.224Z,101311.47
2022-10-09T07:59:06.234Z,101314.47
2022-10-09T08:01:51.877Z,101293.69
2022-10-09T08:04:37.802Z,101305.97
2022-10-09T08:07:23.478Z,101307.09
2022-10-09T08:10:09.849Z,101304.59
2022-10-09T08:12:55.647Z,101308.69
2022-10-09T08:15:42.789Z,101326.41
2022-10-09T08:18:28.534Z,101325.56
2022-10-09T08:21:17.128Z,101327.47
2022-10-09T08:24:03.146Z,101323.66
2022-10-09T08:26:48.717Z,101325.81
2022-10-09T08:29:39.937Z,101323.28
2022-10-09T08:32:26.109Z,101357.22
2022-10-09T08:35:11.729Z,101364.56
2022-10-09T08:37:57.996Z,101361.53
2022-10-09T08:40:46.556Z,101365.34
2022-10-09T08:43:36.156Z,101370.53
2022-10-09T08:47:14.229Z,101366.66
2022-10-09T08:50:13.256Z,101380.56
2022-10-09T08:53:34.220Z,101361.09
2022-10-09T08:56:20.337Z,101354.00
2022-10-09T08:59:06.075Z,101358.06
2022-10-09T09:02:10.779Z,101374.38
2022-10-09T09:05:19.429Z,101376.03
2022-10-09T09:08:33.650Z,101371.94
2022-10-09T09:11:38.423Z,101381.78
2022-10-09T09:14:44.425Z,101357.91
2022-10-09T09:17:39.357Z,101379.44
2022-10-09T09:20:29.644Z,101382.88
2022-10-09T09:23:16.566Z,101365.03
2022-10-09T09:26:02.754Z,101356.78
2022-10-09T09:28:52.691Z,101369.50
2022-10-09T09:31:39.467Z,101381.88
2022-10-09T09:34:35.289Z,101378.97
2022-10-09T09:37:20.838Z,101364.47
2022-10-09T09:43:23.104Z,101385.22
2022-10-09T09:46:16.328Z,101363.91
2022-10-09T09:49:07.051Z,101388.75
2022-10-09T09:51:57.484Z,101386.34
2022-10-09T09:54:48.193Z,101387.44
2022-10-09T09:57:40.990Z,101397.69
2022-10-09T10:00:27.051Z,101389.91
2022-10-09T10:03:16.526Z,101402.38
2022-10-09T10:06:02.615Z,101395.88
2022-10-09T10:08:59.369Z,101390.44
2022-10-09T10:11:59.779Z,101392.75
2022-10-09T10:14:50.047Z,101394.50
2022-10-09T10:17:37.182Z,101392.97
2022-10-09T10:20:22.931Z,101395.06
2022-10-09T10:23:41.831Z,101391.84
2022-10-09T10:26:49.147Z,101394.28
2022-10-09T10:29:47.797Z,101378.31
2022-10-09T10:32:56.152Z,101377.81
2022-10-09T10:35:44.213Z,101386.75
2022-10-09T10:38:42.987Z,101373.63
2022-10-09T10:41:32.573Z,101359.13
2022-10-09T10:45:00.481Z,101382.53
2022-10-09T10:47:53.139Z,101387.06
2022-10-09T10:50:47.813Z,101365.84
2022-10-09T10:54:09.481Z,101382.13
2022-10-09T10:57:12.968Z,101373.41
2022-10-09T11:00:07.834Z,101366.06
2022-10-09T11:03:07.901Z,101368.31
2022-10-09T11:05:57.857Z,101372.91
2022-10-09T11:09:01.821Z,101393.53
2022-10-09T11:11:56.122Z,101400.38
2022-10-09T11:14:51.301Z,101379.72
2022-10-09T11:17:51.050Z,101372.84
2022-10-09T11:20:58.940Z,101399.94
2022-10-09T11:24:24.126Z,101393.75
2022-10-09T11:27:22.121Z,101385.94
2022-10-09T11:30:13.077Z,101387.47
2022-10-09T11:33:38.742Z,101377.28
2022-10-09T11:36:28.047Z,101384.34
2022-10-09T11:39:23.958Z,101360.63
2022-10-09T11:42:10.785Z,101362.38
2022-10-09T11:45:05.107Z,101388.88
2022-10-09T11:48:11.883Z,101371.91
2022-10-09T11:51:19.859Z,101360.00
2022-10-09T11:54:12.719Z,101368.41
2022-10-09T11:57:00.456Z,101373.41
2022-10-09T11:59:48.213Z,101353.13
2022-10-09T12:02:34.955Z,101367.06
2022-10-09T12:05:39.881Z,101365.94
2022-10-09T12:08:26.988Z,101370.00
2022-10-09T12:11:17.514Z,101347.00
2022-10-09T12:14:05.896Z,101371.03
2022-10-09T12:16:52.212Z,101360.16
2022-10-09T12:19:39.669Z,101346.16
2022-10-09T12:22:29.133Z,101346.06
2022-10-09T12:25:28.578Z,101365.34
2022-10-09T12:28:19.992Z,101345.63
2022-10-09T12:31:14.563Z,101361.78
2022-10-09T12:34:19.249Z,101360.50
2022-10-09T12:37:20.623Z,101354.25
2022-10-09T12:40:09.938Z,101343.22
2022-10-09T12:42:56.921Z,101357.50
2022-10-09T12:45:45.566Z,101356.22
2022-10-09T12:48:37.236Z,101355.94
2022-10-09T12:51:25.730Z,101348.81
2022-10-09T12:54:14.988Z,101334.06
2022-10-09T12:57:01.508Z,101339.13
2022-10-09T12:59:47.983Z,101331.16
2022-10-09T13:02:33.724Z,101341.50
2022-10-09T13:05:19.611Z,101331.69
2022-10-09T13:08:06.302Z,101349.69
2022-10-09T13:10:52.936Z,101343.34
2022-10-09T13:13:39.586Z,101324.97
2022-10-09T13:16:25.544Z,101342.13
2022-10-09T13:19:26.110Z,101341.34
2022-10-09T13:22:14.397Z,101342.44
2022-10-09T13:25:00.545Z,101338.06
2022-10-09T13:27:45.958Z,101321.91
2022-10-09T13:30:32.174Z,101332.31
2022-10-09T13:33:18.214Z,101320.28
2022-10-09T13:36:04.429Z,101321.72
2022-10-09T13:38:50.478Z,101304.25
2022-10-09T13:41:36.840Z,101306.41
2022-10-09T13:44:23.012Z,101321.72
2022-10-09T13:47:09.102Z,101325.50
2022-10-09T13:49:54.790Z,101327.66
2022-10-09T13:55:31.187Z,101323.69
2022-10-09T13:58:17.089Z,101315.53
2022-10-09T14:01:03.168Z,101294.38
2022-10-09T14:03:49.611Z,101312.97
2022-10-09T14:06:36.668Z,101305.53
2022-10-09T14:09:22.666Z,101312.16
2022-10-09T14:12:08.730Z,101295.50
2022-10-09T14:14:54.506Z,101280.66
2022-10-09T14:17:40.221Z,101289.66
2022-10-09T14:20:27.072Z,101292.50
2022-10-09T14:23:13.594Z,101291.38
2022-10-09T14:26:04.029Z,101293.31
2022-10-09T14:28:49.951Z,101292.22
2022-10-09T14:31:35.759Z,101281.06
2022-10-09T14:34:21.967Z,101289.06
2022-10-09T14:37:18.755Z,101279.06
2022-10-09T14:40:13.619Z,101299.56
2022-10-09T14:42:59.543Z,101287.00
2022-10-09T14:45:45.070Z,101290.78
2022-10-09T14:48:30.964Z,101270.38
2022-10-09T14:51:22.026Z,101296.09
2022-10-09T14:54:08.841Z,101295.25
2022-10-09T14:56:55.075Z,101292.06
2022-10-09T14:59:41.002Z,101272.69
2022-10-09T15:02:26.458Z,101294.81
2022-10-09T15:05:12.301Z,101283.69
2022-10-09T15:07:57.830Z,101271.56
2022-10-09T15:10:44.002Z,101296.75
2022-10-09T15:13:29.969Z,101296.22
2022-10-09T15:16:17.580Z,101282.91
2022-10-09T15:19:04.643Z,101304.03
2022-10-09T15:21:50.257Z,101306.34
2022-10-09T15:24:35.868Z,101303.66
2022-10-09T15:27:21.934Z,101307.00
2022-10-09T15:30:08.479Z,101296.03
2022-10-09T15:32:54.842Z,101307.84
2022-10-09T15:35:40.333Z,101299.44
2022-10-09T15:38:26.493Z,101298.31
2022-10-09T15:41:25.314Z,101307.69
2022-10-09T15:44:16.876Z,101269.22
2022-10-09T15:47:03.448Z,101301.75
2022-10-09T15:49:53.357Z,101287.69
2022-10-09T15:52:39.175Z,101308.47
2022-10-09T15:55:24.843Z,101290.28
2022-10-09T15:58:10.987Z,101312.00
2022-10-09T16:01:02.533Z,101303.06
2022-10-09T16:03:48.425Z,101290.09
2022-10-09T16:06:34.406Z,101294.84
2022-10-09T16:09:19.950Z,101283.69
2022-10-09T16:12:05.834Z,101300.41
2022-10-09T16:14:51.681Z,101298.28
2022-10-09T16:17:37.811Z,101289.69
2022-10-09T16:20:23.478Z,101305.84
2022-10-09T16:23:10.683Z,101311.66
2022-10-09T16:26:02.913Z,101312.28
2022-10-09T16:28:49.895Z,101311.78
2022-10-09T16:31:36.488Z,101322.22
2022-10-09T16:34:22.492Z,101292.44
2022-10-09T16:37:07.913Z,101297.69
2022-10-09T16:39:53.587Z,101311.63
2022-10-09T16:42:39.623Z,101316.88
2022-10-09T16:45:25.943Z,101307.88
2022-10-09T16:48:11.560Z,101300.78
2022-10-09T16:50:57.616Z,101311.75
2022-10-09T16:53:43.450Z,101319.69
2022-10-09T16:56:33.082Z,101313.69
2022-10-09T16:59:18.966Z,101310.72
2022-10-09T17:02:04.601Z,101314.28
2022-10-09T17:04:50.017Z,101320.88
2022-10-09T17:07:36.043Z,101320.88
2022-10-09T17:10:21.812Z,101326.91
2022-10-09T17:13:07.734Z,101326.38
2022-10-09T17:15:53.420Z,101326.09
2022-10-09T17:18:39.613Z,101320.06
2022-10-09T17:21:29.297Z,101308.28
2022-10-09T17:24:18.890Z,101302.56
2022-10-09T17:27:08.929Z,101309.13
2022-10-09T17:29:54.788Z,101330.69
2022-10-09T17:32:40.585Z,101334.25
2022-10-09T17:35:26.165Z,101315.34
2022-10-09T17:38:11.720Z,101326.84
2022-10-09T17:40:57.526Z,101313.72
2022-10-09T17:43:42.908Z,101317.53
2022-10-09T17:46:30.536Z,101313.44
2022-10-09T17:49:16.613Z,101322.66
2022-10-09T17:52:03.089Z,101308.44
2022-10-09T17:54:49.088Z,101326.25
2022-10-09T17:57:34.860Z,101299.66
2022-10-09T18:00:21.935Z,101328.72
2022-10-09T18:03:08.092Z,101318.81
2022-10-09T18:05:53.412Z,101335.03
2022-10-09T18:08:39.917Z,101335.56
2022-10-09T18:11:27.367Z,101316.63
2022-10-09T18:14:13.413Z,101313.03
2022-10-09T18:16:59.556Z,101343.97
2022-10-09T18:19:45.506Z,101334.38
2022-10-09T18:22:31.679Z,101332.13
2022-10-09T18:25:17.652Z,101352.34
2022-10-09T18:28:03.293Z,101323.31
2022-10-09T18:30:49.264Z,101314.78
2022-10-09T18:33:35.546Z,101330.41
2022-10-09T18:36:24.569Z,101316.41
2022-10-09T18:39:13.668Z,101328.94
2022-10-09T18:42:02.185Z,101333.63
2022-10-09T18:44:47.722Z,101320.13
2022-10-09T18:47:35.236Z,101343.38
2022-10-09T18:50:21.383Z,101317.59
2022-10-09T18:53:07.594Z,101344.69
2022-10-09T18:55:53.247Z,101321.94
2022-10-09T18:58:40.717Z,101320.25
2022-10-09T19:01:27.350Z,101330.38
2022-10-09T19:04:13.156Z,101332.50
2022-10-09T19:06:58.887Z,101330.28
2022-10-09T19:09:44.913Z,101350.50
2022-10-09T19:12:30.467Z,101326.69
2022-10-09T19:15:16.450Z,101349.16
2022-10-09T19:18:02.362Z,101346.16
2022-10-09T19:20:48.835Z,101341.53
2022-10-09T19:23:34.575Z,101320.44
2022-10-09T19:26:21.193Z,101328.38
2022-10-09T19:29:07.580Z,101320.31
2022-10-09T19:31:54.136Z,101313.13
2022-10-09T19:34:39.744Z,101322.91
2022-10-09T19:37:28.961Z,101330.63
2022-10-09T19:40:15.748Z,101331.75
2022-10-09T19:43:01.604Z,101333.41
2022-10-09T19:45:49.763Z,101333.41
2022-10-09T19:48:36.673Z,101327.91
2022-10-09T19:51:25.506Z,101313.38
2022-10-09T19:54:12.405Z,101311.72
2022-10-09T19:56:58.188Z,101330.34
2022-10-09T19:59:44.263Z,101320.16
2022-10-09T20:02:30.477Z,101323.75
2022-10-09T20:05:16.574Z,101307.84
2022-10-09T20:08:02.246Z,101321.00
2022-10-09T20:10:48.209Z,101312.50
2022-10-09T20:13:36.148Z,101305.06
2022-10-09T20:16:22.430Z,101330.78
2022-10-09T20:19:08.327Z,101329.97
2022-10-09T20:21:54.277Z,101325.94
2022-10-09T20:24:39.667Z,101321.28
2022-10-09T20:27:25.822Z,101320.16
2022-10-09T20:30:12.127Z,101325.03
2022-10-09T20:32:59.439Z,101312.66
2022-10-09T20:35:45.465Z,101325.50
2022-10-09T20:38:31.421Z,101307.72
2022-10-09T20:41:17.056Z,101312.09
2022-10-09T20:44:04.037Z,101322.50
2022-10-09T20:46:50.172Z,101303.88
2022-10-09T20:49:36.088Z,101338.34
2022-10-09T20:52:22.121Z,101300.78
2022-10-09T20:55:08.211Z,101309.03
2022-10-09T20:57:55.002Z,101307.31
2022-10-09T21:00:42.963Z,101322.69
2022-10-09T21:03:28.724Z,101325.22
2022-10-09T21:06:17.386Z,101321.97
2022-10-09T21:09:03.379Z,101314.09
2022-10-09T21:11:50.617Z,101327.28
2022-10-09T21:14:36.648Z,101330.38
2022-10-09T21:17:22.994Z,101308.47
2022-10-09T21:20:09.021Z,101301.66
2022-10-09T21:22:54.895Z,101311.28
2022-10-09T21:25:50.128Z,101320.38
2022-10-09T21:28:36.040Z,101304.78
2022-10-09T21:31:26.132Z,101318.25
2022-10-09T21:34:11.996Z,101304.84
2022-10-09T21:40:03.965Z,101300.75
2022-10-09T21:42:49.929Z,101310.59
2022-10-09T21:45:36.872Z,101313.97
2022-10-09T21:48:22.552Z,101324.34
2022-10-09T21:51:08.618Z,101312.59
2022-10-09T21:53:55.054Z,101297.25
2022-10-09T21:56:41.224Z,101287.69
2022-10-09T21:59:27.199Z,101293.44
2022-10-09T22:02:13.159Z,101307.91
2022-10-09T22:04:59.326Z,101314.22
2022-10-09T22:07:44.961Z,101290.63
2022-10-09T22:10:30.686Z,101302.13
2022-10-09T22:13:17.638Z,101308.72
2022-10-09T22:16:08.161Z,101309.25
2022-10-09T22:18:54.155Z,101310.59
2022-10-09T22:21:40.063Z,101305.66
2022-10-09T22:24:29.186Z,101276.09
2022-10-09T22:27:15.315Z,101300.16
2022-10-09T22:30:01.306Z,101297.69
2022-10-09T22:32:46.890Z,101285.16
2022-10-09T22:35:32.925Z,101269.47
2022-10-09T22:38:18.474Z,101270.00
2022-10-09T22:41:12.530Z,101300.63
2022-10-09T22:43:59.399Z,101282.91
2022-10-09T22:46:45.894Z,101292.72
2022-10-09T22:49:31.379Z,101286.41
2022-10-09T22:52:17.471Z,101281.44
2022-10-09T22:55:04.052Z,101287.44
2022-10-09T22:57:49.836Z,101290.72
2022-10-09T23:00:38.431Z,101296.19
2022-10-09T23:03:24.518Z,101274.28
2022-10-09T23:06:12.725Z,101257.31
2022-10-09T23:08:59.296Z,101287.72
2022-10-09T23:11:45.149Z,101271.00
2022-10-09T23:14:31.219Z,101265.25
2022-10-09T23:17:16.828Z,101255.38
2022-10-09T23:20:03.205Z,101281.38
2022-10-09T23:22:49.135Z,101272.97
2022-10-09T23:25:39.925Z,101250.16
2022-10-09T23:28:27.848Z,101255.59
2022-10-09T23:31:14.776Z,101292.28
2022-10-09T23:34:00.372Z,101282.47
2022-10-09T23:36:46.346Z,101275.66
2022-10-09T23:39:31.842Z,101247.16
2022-10-09T23:42:17.840Z,101268.47
2022-10-09T23:45:03.646Z,101255.59
2022-10-09T23:47:49.795Z,101263.53
2022-10-09T23:50:35.270Z,101263.81
2022-10-09T23:53:21.876Z,101265.97
2022-10-09T23:56:23.794Z,101264.53
2022-10-09T23:59:11.123Z,101260.44
